createdAt,value
2022-10-18T00:02:06.627Z,9.30
2022-10-18T00:04:37.481Z,6.97
2022-10-18T00:07:09.689Z,6.25
2022-10-18T00:09:39.273Z,8.48
2022-10-18T00:12:08.960Z,8.90
2022-10-18T00:14:38.519Z,8.95
2022-10-18T00:17:08.080Z,10.60
2022-10-18T00:19:37.669Z,6.30
2022-10-18T00:22:09.827Z,6.95
2022-10-18T00:24:39.346Z,10.07
2022-10-18T00:27:09.364Z,7.50
2022-10-18T00:29:38.904Z,7.53
2022-10-18T00:32:08.732Z,9.15
2022-10-18T00:34:38.692Z,10.85
2022-10-18T00:37:10.823Z,10.35
2022-10-18T00:39:40.416Z,7.13
2022-10-18T00:42:09.991Z,11.13
2022-10-18T00:45:24.588Z,10.60
2022-10-18T00:47:57.605Z,8.55
2022-10-18T00:50:28.296Z,6.90
2022-10-18T00:53:02.584Z,9.05
2022-10-18T00:55:34.368Z,8.10
2022-10-18T00:58:04.646Z,8.55
2022-10-18T01:00:38.721Z,12.18
2022-10-18T01:03:08.617Z,11.43
2022-10-18T01:05:49.380Z,14.32
2022-10-18T01:08:34.006Z,8.75
2022-10-18T01:11:12.807Z,8.70
2022-10-18T01:13:59.872Z,9.00
2022-10-18T01:16:42.194Z,11.35
2022-10-18T01:19:29.680Z,8.50
2022-10-18T01:22:03.613Z,9.30
2022-10-18T01:27:43.280Z,9.20
2022-10-18T01:30:35.407Z,10.95
2022-10-18T01:33:08.717Z,13.02
2022-10-18T01:35:43.923Z,12.93
2022-10-18T01:38:17.176Z,10.93
2022-10-18T01:40:49.251Z,11.52
2022-10-18T01:43:20.179Z,12.90
2022-10-18T01:45:52.728Z,13.25
2022-10-18T01:48:23.216Z,9.82
2022-10-18T01:50:52.786Z,12.68
2022-10-18T01:53:27.890Z,12.02
2022-10-18T01:56:04.442Z,9.57
2022-10-18T01:58:41.203Z,12.75
2022-10-18T02:01:20.000Z,11.07
2022-10-18T02:03:51.338Z,10.35
2022-10-18T02:06:23.759Z,9.90
2022-10-18T02:08:56.594Z,9.70
2022-10-18T02:11:26.312Z,10.90
2022-10-18T02:13:57.942Z,14.20
2022-10-18T02:16:33.666Z,11.15
2022-10-18T02:19:04.968Z,8.80
2022-10-18T02:21:35.279Z,11.57
2022-10-18T02:24:05.488Z,8.73
2022-10-18T02:26:35.289Z,11.00
2022-10-18T02:29:04.867Z,10.93
2022-10-18T02:31:39.924Z,11.75
2022-10-18T02:34:13.772Z,14.25
2022-10-18T02:36:46.355Z,8.27
2022-10-18T02:39:18.996Z,8.25
2022-10-18T02:41:48.568Z,9.80
2022-10-18T02:44:18.240Z,11.73
2022-10-18T02:46:50.902Z,11.52
2022-10-18T02:49:20.468Z,14.23
2022-10-18T02:51:50.052Z,10.50
2022-10-18T02:54:19.618Z,13.50
2022-10-18T02:56:49.171Z,39.83
2022-10-18T02:59:19.069Z,13.50
2022-10-18T03:01:51.266Z,12.38
2022-10-18T03:04:21.166Z,8.98
2022-10-18T03:06:50.741Z,9.75
2022-10-18T03:09:20.760Z,8.65
2022-10-18T03:11:50.349Z,10.18
2022-10-18T03:14:19.905Z,8.18
2022-10-18T03:16:52.082Z,11.98
2022-10-18T03:19:21.619Z,8.77
2022-10-18T03:21:51.180Z,11.95
2022-10-18T03:24:20.884Z,77.85
2022-10-18T03:26:50.438Z,11.60
2022-10-18T03:29:20.039Z,10.60
2022-10-18T03:31:52.187Z,11.48
2022-10-18T03:34:21.715Z,11.73
2022-10-18T03:36:51.268Z,10.90
2022-10-18T03:39:20.846Z,12.80
2022-10-18T03:41:50.650Z,16.27
2022-10-18T03:44:20.190Z,11.02
2022-10-18T03:46:52.366Z,10.30
2022-10-18T03:49:22.008Z,9.88
2022-10-18T03:51:52.067Z,8.20
2022-10-18T03:54:21.706Z,9.75
2022-10-18T03:56:51.765Z,11.93
2022-10-18T03:59:22.416Z,9.57
2022-10-18T04:01:54.653Z,13.95
2022-10-18T04:04:24.413Z,13.68
2022-10-18T04:06:54.143Z,10.80
2022-10-18T04:09:23.750Z,10.38
2022-10-18T04:11:53.427Z,10.70
2022-10-18T04:14:23.731Z,13.30
2022-10-18T04:16:55.874Z,10.63
2022-10-18T04:19:25.452Z,8.32
2022-10-18T04:21:55.024Z,11.02
2022-10-18T04:24:24.748Z,25.73
2022-10-18T04:26:54.373Z,13.88
2022-10-18T04:29:24.134Z,11.77
2022-10-18T04:31:56.288Z,13.95
2022-10-18T04:34:26.086Z,8.32
2022-10-18T04:36:55.667Z,27.10
2022-10-18T04:39:25.213Z,11.57
2022-10-18T04:41:54.786Z,12.82
2022-10-18T04:44:24.557Z,8.60
2022-10-18T04:46:57.157Z,9.23
2022-10-18T04:49:26.730Z,10.60
2022-10-18T04:51:56.325Z,11.25
2022-10-18T04:54:28.520Z,12.55
2022-10-18T04:56:58.442Z,12.40
2022-10-18T04:59:28.084Z,11.10
2022-10-18T05:02:00.754Z,10.23
2022-10-18T05:04:30.385Z,10.40
2022-10-18T05:06:59.985Z,10.68
2022-10-18T05:09:29.590Z,12.15
2022-10-18T05:11:59.230Z,8.82
2022-10-18T05:14:28.826Z,10.30
2022-10-18T05:17:00.960Z,9.68
2022-10-18T05:19:30.549Z,12.68
2022-10-18T05:22:00.165Z,12.15
2022-10-18T05:24:29.953Z,10.20
2022-10-18T05:26:59.754Z,9.38
2022-10-18T05:29:29.585Z,9.40
2022-10-18T05:32:01.794Z,9.75
2022-10-18T05:34:32.042Z,9.55
2022-10-18T05:37:02.524Z,10.05
2022-10-18T05:39:32.133Z,9.35
2022-10-18T05:42:02.458Z,11.80
2022-10-18T05:44:32.052Z,10.02
2022-10-18T05:47:04.249Z,10.38
2022-10-18T05:49:33.816Z,13.07
2022-10-18T05:52:03.409Z,13.65
2022-10-18T05:54:32.972Z,12.35
2022-10-18T05:57:02.609Z,15.05
2022-10-18T05:59:32.182Z,13.60
2022-10-18T06:02:04.338Z,12.95
2022-10-18T06:04:34.838Z,14.18
2022-10-18T06:07:04.425Z,13.45
2022-10-18T06:09:33.956Z,16.35
2022-10-18T06:12:03.582Z,20.55
2022-10-18T06:14:33.523Z,14.93
2022-10-18T06:17:06.113Z,19.83
2022-10-18T06:19:35.804Z,15.43
2022-10-18T06:22:05.387Z,18.20
2022-10-18T06:24:34.968Z,17.45
2022-10-18T06:27:08.952Z,19.15
2022-10-18T06:29:38.754Z,20.88
2022-10-18T06:32:11.476Z,17.50
2022-10-18T06:34:41.026Z,14.40
2022-10-18T06:37:10.691Z,18.45
2022-10-18T06:39:41.018Z,17.30
2022-10-18T06:42:10.928Z,16.60
2022-10-18T06:44:41.258Z,16.92
2022-10-18T06:47:13.395Z,14.57
2022-10-18T06:49:42.951Z,15.90
2022-10-18T06:52:12.530Z,15.38
2022-10-18T06:54:44.208Z,13.63
2022-10-18T06:57:14.826Z,17.13
2022-10-18T06:59:44.375Z,26.58
2022-10-18T07:02:19.064Z,21.27
2022-10-18T07:04:48.626Z,15.10
2022-10-18T07:07:18.182Z,18.50
2022-10-18T07:09:47.926Z,17.50
2022-10-18T07:12:17.859Z,15.80
2022-10-18T07:14:48.818Z,16.63
2022-10-18T07:17:21.003Z,16.55
2022-10-18T07:19:50.532Z,14.00
2022-10-18T07:22:20.080Z,14.60
2022-10-18T07:24:49.632Z,16.15
2022-10-18T07:27:19.176Z,16.58
2022-10-18T07:29:49.700Z,15.35
2022-10-18T07:32:21.897Z,19.63
2022-10-18T07:34:51.748Z,17.63
2022-10-18T07:37:21.839Z,15.80
2022-10-18T07:39:53.100Z,16.80
2022-10-18T07:42:22.821Z,16.77
2022-10-18T07:44:52.388Z,15.93
2022-10-18T07:47:24.547Z,17.48
2022-10-18T07:49:54.098Z,17.05
2022-10-18T07:52:23.658Z,17.65
2022-10-18T07:54:53.257Z,24.25
2022-10-18T07:57:23.435Z,23.45
2022-10-18T07:59:56.881Z,28.27
2022-10-18T08:02:29.053Z,43.78
2022-10-18T08:04:58.687Z,50.10
2022-10-18T08:07:28.316Z,53.08
2022-10-18T08:09:57.836Z,47.45
2022-10-18T08:12:27.470Z,51.60
2022-10-18T08:14:57.049Z,55.40
2022-10-18T08:17:29.258Z,58.05
2022-10-18T08:20:11.867Z,58.53
2022-10-18T08:22:48.471Z,53.58
2022-10-18T08:25:18.213Z,44.83
2022-10-18T08:27:47.827Z,56.45
2022-10-18T08:30:17.706Z,62.83
2022-10-18T08:32:49.831Z,67.53
2022-10-18T08:35:19.524Z,59.15
2022-10-18T08:37:49.111Z,69.15
2022-10-18T08:40:18.986Z,62.05
2022-10-18T08:43:03.127Z,70.13
2022-10-18T08:45:47.415Z,67.05
2022-10-18T08:48:24.656Z,60.22
2022-10-18T08:50:54.754Z,57.83
2022-10-18T08:53:29.299Z,65.07
2022-10-18T08:56:05.546Z,60.88
2022-10-18T08:58:36.089Z,61.70
2022-10-18T09:01:11.446Z,64.15
2022-10-18T09:03:59.134Z,61.95
2022-10-18T09:06:33.600Z,58.60
2022-10-18T09:09:14.432Z,59.83
2022-10-18T09:11:52.680Z,69.25
2022-10-18T09:14:48.109Z,59.20
2022-10-18T09:17:22.710Z,67.13
2022-10-18T09:20:06.639Z,66.25
2022-10-18T09:22:46.184Z,72.97
2022-10-18T09:25:20.779Z,70.13
2022-10-18T09:27:55.833Z,72.28
2022-10-18T09:30:35.173Z,73.60
2022-10-18T09:33:15.849Z,85.10
2022-10-18T09:35:52.349Z,79.65
2022-10-18T09:41:19.647Z,76.07
2022-10-18T09:43:53.622Z,74.80
2022-10-18T09:48:54.590Z,74.22
2022-10-18T09:51:29.024Z,68.88
2022-10-18T09:54:06.699Z,58.88
2022-10-18T09:56:41.941Z,59.42
2022-10-18T09:59:30.304Z,53.17
2022-10-18T10:01:59.824Z,59.88
2022-10-18T10:04:29.675Z,51.40
2022-10-18T10:07:04.000Z,54.25
2022-10-18T10:09:39.164Z,43.75
2022-10-18T10:12:08.767Z,44.00
2022-10-18T10:14:46.710Z,46.25
2022-10-18T10:17:27.498Z,43.25
2022-10-18T10:20:00.349Z,41.45
2022-10-18T10:22:40.523Z,41.67
2022-10-18T10:25:10.673Z,36.70
2022-10-18T10:27:43.655Z,40.33
2022-10-18T10:30:25.863Z,40.95
2022-10-18T10:32:56.423Z,45.30
2022-10-18T10:35:52.582Z,39.40
2022-10-18T10:38:30.609Z,43.35
2022-10-18T10:41:00.571Z,40.80
2022-10-18T10:43:37.641Z,42.45
2022-10-18T10:46:10.704Z,43.08
2022-10-18T10:48:48.964Z,40.95
2022-10-18T10:51:20.251Z,37.90
2022-10-18T10:53:59.525Z,39.08
2022-10-18T10:56:30.815Z,42.65
2022-10-18T10:59:09.043Z,34.45
2022-10-18T11:01:39.165Z,38.58
2022-10-18T11:04:27.773Z,40.33
2022-10-18T11:07:04.133Z,39.67
2022-10-18T11:09:51.813Z,36.80
2022-10-18T11:12:29.962Z,41.83
2022-10-18T11:15:10.000Z,41.28
2022-10-18T11:17:45.238Z,39.90
2022-10-18T11:20:21.132Z,37.00
2022-10-18T11:23:01.222Z,38.38
2022-10-18T11:25:54.187Z,33.33
2022-10-18T11:28:35.033Z,38.33
2022-10-18T11:31:15.505Z,34.13
2022-10-18T11:34:08.600Z,34.90
2022-10-18T11:36:50.473Z,38.13
2022-10-18T11:39:33.195Z,32.08
2022-10-18T11:42:11.072Z,32.80
2022-10-18T11:44:45.219Z,32.42
2022-10-18T11:47:19.676Z,32.58
2022-10-18T11:49:57.930Z,32.15
2022-10-18T11:52:34.132Z,35.20
2022-10-18T11:55:33.924Z,35.60
2022-10-18T11:58:14.543Z,37.92
2022-10-18T12:00:49.816Z,37.65
2022-10-18T12:03:36.521Z,33.80
2022-10-18T12:06:09.150Z,34.97
2022-10-18T12:08:41.922Z,42.50
2022-10-18T12:11:16.325Z,47.55
2022-10-18T12:13:50.954Z,53.80
2022-10-18T12:16:38.839Z,54.92
2022-10-18T12:19:22.121Z,50.08
2022-10-18T12:21:55.631Z,52.25
2022-10-18T12:24:28.283Z,51.08
2022-10-18T12:27:01.473Z,46.88
2022-10-18T12:29:40.011Z,47.25
2022-10-18T12:32:12.662Z,47.60
2022-10-18T12:34:45.592Z,43.88
2022-10-18T12:37:45.633Z,40.53
2022-10-18T12:40:21.316Z,47.72
2022-10-18T12:42:52.606Z,47.85
2022-10-18T12:45:33.442Z,35.28
2022-10-18T12:48:04.051Z,40.92
2022-10-18T12:50:37.539Z,38.30
2022-10-18T12:53:22.971Z,37.38
2022-10-18T12:55:54.126Z,32.38
2022-10-18T12:58:34.474Z,36.20
2022-10-18T13:01:09.446Z,32.05
2022-10-18T13:03:55.766Z,29.95
2022-10-18T13:06:26.362Z,29.70
2022-10-18T13:09:21.405Z,29.10
2022-10-18T13:11:51.041Z,21.90
2022-10-18T13:14:59.154Z,22.40
2022-10-18T13:17:44.101Z,25.65
2022-10-18T13:20:27.208Z,26.63
2022-10-18T13:23:04.978Z,26.60
2022-10-18T13:25:39.533Z,24.17
2022-10-18T13:28:21.725Z,22.35
2022-10-18T13:30:56.773Z,22.30
2022-10-18T13:33:34.738Z,18.30
2022-10-18T13:36:06.431Z,17.25
2022-10-18T13:38:40.965Z,22.17
2022-10-18T13:41:12.285Z,18.40
2022-10-18T13:44:12.617Z,14.55
2022-10-18T13:47:21.337Z,15.25
2022-10-18T13:50:06.175Z,19.58
2022-10-18T13:52:50.875Z,15.02
2022-10-18T13:55:40.948Z,17.38
2022-10-18T13:58:14.634Z,19.20
2022-10-18T14:00:55.335Z,16.83
2022-10-18T14:03:58.374Z,14.68
2022-10-18T14:06:35.808Z,16.08
2022-10-18T14:09:19.558Z,19.05
2022-10-18T14:11:57.809Z,13.88
2022-10-18T14:14:34.366Z,13.93
2022-10-18T14:17:18.840Z,11.98
2022-10-18T14:19:51.989Z,14.60
2022-10-18T14:22:25.814Z,15.00
2022-10-18T14:27:27.690Z,11.95
2022-10-18T14:30:11.718Z,15.73
2022-10-18T14:32:45.903Z,17.17
2022-10-18T14:35:32.083Z,17.23
2022-10-18T14:38:05.360Z,16.70
2022-10-18T14:40:38.156Z,13.80
2022-10-18T14:43:11.990Z,17.48
2022-10-18T14:45:41.777Z,14.88
2022-10-18T14:48:17.650Z,15.20
2022-10-18T14:50:49.893Z,10.77
2022-10-18T14:53:25.197Z,10.65
2022-10-18T14:56:00.734Z,17.23
2022-10-18T14:58:30.414Z,15.73
2022-10-18T15:01:00.351Z,16.35
2022-10-18T15:03:30.526Z,14.18
2022-10-18T15:06:02.084Z,13.27
2022-10-18T15:08:43.910Z,13.00
2022-10-18T15:11:14.887Z,16.10
2022-10-18T15:13:49.669Z,17.00
2022-10-18T15:16:20.590Z,22.80
2022-10-18T15:19:04.054Z,17.10
2022-10-18T15:21:33.962Z,14.20
2022-10-18T15:24:24.787Z,21.85
2022-10-18T15:26:54.497Z,18.00
2022-10-18T15:29:24.964Z,16.90
2022-10-18T15:31:55.089Z,20.00
2022-10-18T15:34:26.049Z,16.70
2022-10-18T15:36:58.823Z,14.82
2022-10-18T15:39:32.992Z,16.52
2022-10-18T15:42:04.016Z,14.23
2022-10-18T15:44:36.434Z,16.23
2022-10-18T15:47:21.696Z,21.65
2022-10-18T15:49:56.974Z,22.58
2022-10-18T15:52:39.341Z,22.92
2022-10-18T15:55:39.138Z,20.25
2022-10-18T15:58:15.547Z,16.83
2022-10-18T16:00:45.565Z,14.25
2022-10-18T16:03:15.212Z,13.95
2022-10-18T16:05:44.988Z,19.52
2022-10-18T16:08:22.751Z,16.02
2022-10-18T16:10:52.385Z,15.75
2022-10-18T16:13:24.524Z,15.35
2022-10-18T16:15:55.700Z,11.43
2022-10-18T16:18:26.084Z,20.55
2022-10-18T16:20:56.030Z,16.15
2022-10-18T16:23:28.585Z,16.38
2022-10-18T16:25:58.380Z,23.67
2022-10-18T16:28:31.891Z,14.32
2022-10-18T16:31:03.849Z,16.20
2022-10-18T16:33:33.633Z,20.77
2022-10-18T16:36:04.609Z,14.50
2022-10-18T16:38:36.171Z,15.40
2022-10-18T16:41:06.454Z,22.65
2022-10-18T16:43:39.625Z,20.05
2022-10-18T16:46:10.020Z,52.40
2022-10-18T16:48:39.573Z,34.80
2022-10-18T16:51:09.444Z,16.38
2022-10-18T16:53:39.099Z,19.73
2022-10-18T16:56:13.629Z,24.90
2022-10-18T16:58:46.122Z,34.08
2022-10-18T17:01:16.727Z,21.92
2022-10-18T17:03:47.241Z,14.07
2022-10-18T17:06:18.447Z,23.02
2022-10-18T17:08:50.053Z,16.92
2022-10-18T17:11:20.487Z,14.88
2022-10-18T17:13:52.632Z,14.38
2022-10-18T17:19:16.626Z,28.00
2022-10-18T17:21:46.169Z,23.42
2022-10-18T17:24:16.213Z,20.30
2022-10-18T17:26:46.413Z,20.40
2022-10-18T17:29:21.235Z,18.17
2022-10-18T17:31:50.814Z,17.55
2022-10-18T17:34:21.597Z,16.08
2022-10-18T17:36:51.258Z,27.15
2022-10-18T17:39:20.881Z,23.33
2022-10-18T17:41:50.650Z,30.35
2022-10-18T17:44:22.812Z,17.48
2022-10-18T17:46:52.866Z,21.67
2022-10-18T17:49:22.458Z,30.27
2022-10-18T17:51:52.176Z,24.52
2022-10-18T17:54:21.777Z,26.05
2022-10-18T17:56:53.888Z,21.20
2022-10-18T17:59:26.794Z,25.02
2022-10-18T18:01:56.398Z,25.35
2022-10-18T18:04:26.057Z,15.13
2022-10-18T18:06:57.255Z,24.33
2022-10-18T18:09:27.389Z,17.75
2022-10-18T18:11:56.984Z,24.02
2022-10-18T18:14:29.367Z,15.65
2022-10-18T18:16:59.470Z,22.77
2022-10-18T18:19:29.129Z,23.10
2022-10-18T18:21:59.435Z,24.50
2022-10-18T18:24:30.001Z,33.38
2022-10-18T18:26:59.864Z,36.00
2022-10-18T18:29:32.473Z,19.70
2022-10-18T18:32:03.379Z,23.20
2022-10-18T18:34:32.981Z,21.83
2022-10-18T18:37:02.577Z,28.90
2022-10-18T18:39:35.684Z,21.20
2022-10-18T18:42:06.340Z,23.17
2022-10-18T18:44:38.575Z,18.85
2022-10-18T18:47:12.983Z,18.88
2022-10-18T18:49:43.020Z,27.67
2022-10-18T18:52:12.759Z,24.02
2022-10-18T18:54:42.357Z,27.48
2022-10-18T18:57:11.949Z,47.13
2022-10-18T18:59:44.126Z,25.02
2022-10-18T19:02:13.714Z,45.38
2022-10-18T19:04:43.953Z,35.40
2022-10-18T19:07:13.572Z,30.40
2022-10-18T19:09:44.711Z,25.00
2022-10-18T19:12:16.485Z,32.22
2022-10-18T19:14:51.202Z,21.52
2022-10-18T19:17:21.957Z,25.15
2022-10-18T19:19:52.545Z,23.92
2022-10-18T19:22:22.102Z,23.27
2022-10-18T19:24:51.648Z,24.88
2022-10-18T19:27:21.193Z,25.27
2022-10-18T19:29:53.326Z,34.70
2022-10-18T19:32:22.944Z,22.85
2022-10-18T19:34:52.813Z,20.63
2022-10-18T19:37:22.394Z,27.15
2022-10-18T19:39:51.917Z,19.35
2022-10-18T19:42:26.146Z,20.02
2022-10-18T19:44:59.612Z,19.08
2022-10-18T19:47:29.220Z,29.35
2022-10-18T19:49:59.210Z,22.55
2022-10-18T19:52:28.925Z,18.63
2022-10-18T19:54:58.616Z,21.70
2022-10-18T19:57:28.860Z,19.73
2022-10-18T20:00:01.543Z,18.70
2022-10-18T20:02:41.196Z,24.98
2022-10-18T20:05:11.501Z,18.15
2022-10-18T20:07:41.354Z,21.15
2022-10-18T20:10:11.445Z,24.88
2022-10-18T20:12:41.112Z,27.33
2022-10-18T20:15:14.557Z,16.45
2022-10-18T20:17:44.268Z,24.48
2022-10-18T20:20:14.664Z,22.08
2022-10-18T20:22:44.365Z,18.27
2022-10-18T20:25:13.942Z,24.90
2022-10-18T20:27:43.495Z,21.17
2022-10-18T20:30:15.833Z,18.40
2022-10-18T20:32:45.382Z,18.50
2022-10-18T20:35:14.889Z,20.40
2022-10-18T20:37:44.430Z,21.20
2022-10-18T20:40:14.926Z,23.13
2022-10-18T20:42:44.606Z,16.48
2022-10-18T20:45:16.703Z,16.17
2022-10-18T20:47:46.437Z,16.48
2022-10-18T20:50:15.978Z,20.05
2022-10-18T20:52:51.118Z,20.00
2022-10-18T20:55:20.732Z,19.48
2022-10-18T20:57:50.801Z,18.65
2022-10-18T21:00:22.995Z,14.90
2022-10-18T21:02:52.587Z,15.38
2022-10-18T21:05:22.109Z,16.25
2022-10-18T21:07:51.681Z,17.52
2022-10-18T21:10:21.316Z,14.80
2022-10-18T21:12:51.064Z,12.88
2022-10-18T21:15:24.280Z,10.65
2022-10-18T21:17:54.180Z,12.53
2022-10-18T21:20:23.725Z,11.38
2022-10-18T21:22:54.075Z,15.82
2022-10-18T21:25:23.605Z,11.95
2022-10-18T21:27:53.170Z,17.13
2022-10-18T21:30:25.421Z,17.38
2022-10-18T21:32:55.274Z,18.60
2022-10-18T21:35:24.816Z,14.15
2022-10-18T21:37:54.421Z,19.00
2022-10-18T21:40:23.961Z,11.68
2022-10-18T21:42:53.516Z,17.60
2022-10-18T21:45:25.634Z,12.80
2022-10-18T21:47:55.233Z,16.95
2022-10-18T21:50:24.797Z,13.55
2022-10-18T21:52:54.360Z,9.50
2022-10-18T21:55:23.881Z,9.60
2022-10-18T21:57:53.456Z,9.95
2022-10-18T22:00:25.603Z,14.05
2022-10-18T22:03:09.101Z,10.95
2022-10-18T22:05:38.712Z,8.55
2022-10-18T22:08:09.505Z,14.45
2022-10-18T22:10:39.149Z,11.55
2022-10-18T22:13:08.702Z,11.77
2022-10-18T22:15:40.861Z,12.85
2022-10-18T22:18:10.406Z,9.88
2022-10-18T22:20:39.957Z,12.90
2022-10-18T22:23:11.143Z,8.55
2022-10-18T22:25:40.684Z,7.57
2022-10-18T22:28:10.241Z,13.98
2022-10-18T22:30:42.407Z,16.33
2022-10-18T22:33:11.955Z,13.07
2022-10-18T22:35:41.989Z,16.88
2022-10-18T22:38:11.525Z,11.77
2022-10-18T22:40:41.024Z,14.00
2022-10-18T22:43:10.580Z,8.20
2022-10-18T22:45:43.992Z,6.90
2022-10-18T22:48:13.542Z,11.27
2022-10-18T22:50:43.085Z,11.02
2022-10-18T22:53:12.638Z,12.05
2022-10-18T22:55:42.169Z,10.60
2022-10-18T22:58:11.736Z,11.50
2022-10-18T23:00:43.886Z,11.52
2022-10-18T23:03:13.453Z,14.23
2022-10-18T23:05:43.883Z,14.05
2022-10-18T23:08:14.978Z,11.95
2022-10-18T23:10:45.485Z,14.60
2022-10-18T23:13:15.541Z,10.77
2022-10-18T23:15:47.701Z,14.32
2022-10-18T23:18:17.718Z,17.95
2022-10-18T23:20:47.486Z,18.23
2022-10-18T23:23:17.025Z,14.27
2022-10-18T23:25:48.654Z,17.33
2022-10-18T23:28:20.555Z,14.90
2022-10-18T23:30:52.729Z,12.57
2022-10-18T23:33:22.273Z,12.93
2022-10-18T23:35:51.829Z,13.40
2022-10-18T23:38:21.382Z,15.98
2022-10-18T23:40:50.926Z,19.02
2022-10-18T23:43:20.470Z,13.93
2022-10-18T23:45:53.081Z,17.38
2022-10-18T23:48:22.644Z,23.13
2022-10-18T23:50:52.254Z,17.33
2022-10-18T23:53:22.333Z,17.25
2022-10-18T23:55:55.296Z,9.43
2022-10-18T23:58:25.209Z,15.27
